Time;durP1;ratioP1;P1;durP2;ratioP2;P2;SDS_P1;SDS_P2;PMS_P1;PMS_P2;Temp;Humidity;BMP_temperature;BMP_pressure;BME280_temperature;BME280_humidity;BME280_pressure;Samples;Min_cycle;Max_cycle;Signal;HPM_P1;HPM_P2
2023/07/19 00:00:39;;;;;;;2.53;0.50;;;;;;;34.38;18.16;100892.53;4950277;28;20056;-76
2023/07/19 00:03:09;;;;;;;1.02;0.80;;;;;;;34.48;18.29;100900.84;4949782;28;20437;-76
2023/07/19 00:05:38;;;;;;;0.70;0.55;;;;;;;34.53;18.84;100894.16;4949891;28;20058;-75
2023/07/19 00:08:07;;;;;;;1.35;0.57;;;;;;;34.56;17.71;100890.41;4948527;28;20047;-75
2023/07/19 00:10:35;;;;;;;0.60;0.50;;;;;;;34.55;18.24;100894.94;4949008;28;20053;-76
2023/07/19 00:13:04;;;;;;;1.02;0.50;;;;;;;34.55;18.57;100883.31;4945084;28;20055;-76
2023/07/19 00:15:43;;;;;;;0.70;0.50;;;;;;;34.57;18.21;100886.78;4948790;28;20096;-75
2023/07/19 00:18:13;;;;;;;1.25;0.63;;;;;;;34.52;18.21;100884.41;4951764;28;20051;-73
2023/07/19 00:20:42;;;;;;;1.58;0.60;;;;;;;34.45;18.02;100876.84;4950702;28;20059;-77
2023/07/19 00:23:10;;;;;;;0.88;0.45;;;;;;;34.39;17.92;100884.38;4949276;28;20785;-76
2023/07/19 00:25:41;;;;;;;0.95;0.40;;;;;;;34.39;19.08;100884.38;4950537;28;20055;-77
2023/07/19 00:28:10;;;;;;;0.65;0.47;;;;;;;34.29;17.89;100877.91;4954738;28;20063;-79
2023/07/19 00:30:39;;;;;;;3.10;0.80;;;;;;;34.21;18.29;100880.25;4952928;28;20058;-73
2023/07/19 00:33:07;;;;;;;2.80;0.65;;;;;;;34.19;17.81;100883.03;4949490;28;20582;-76
2023/07/19 00:35:44;;;;;;;1.67;0.50;;;;;;;34.19;17.96;100880.34;4950513;28;20043;-75
2023/07/19 00:38:13;;;;;;;3.35;0.75;;;;;;;34.14;18.82;100874.44;4951268;28;20075;-76
2023/07/19 00:40:42;;;;;;;1.00;0.55;;;;;;;34.11;18.66;100874.66;4953181;28;20118;-74
2023/07/19 00:43:11;;;;;;;0.77;0.68;;;;;;;34.10;18.75;100862.19;4954058;28;20095;-76
2023/07/19 00:45:45;;;;;;;1.95;0.60;;;;;;;34.14;19.59;100866.38;4952749;28;20047;-73
2023/07/19 00:48:15;;;;;;;1.77;0.50;;;;;;;34.12;18.96;100870.16;4953133;28;20047;-76
2023/07/19 00:50:46;;;;;;;1.73;0.60;;;;;;;34.00;19.61;100867.28;4953223;28;20716;-74
2023/07/19 00:53:15;;;;;;;1.00;0.60;;;;;;;33.93;19.75;100865.13;4951806;28;20047;-76
2023/07/19 00:55:46;;;;;;;1.02;0.80;;;;;;;33.85;19.72;100867.44;4952462;28;20848;-75
2023/07/19 00:58:16;;;;;;;0.90;0.65;;;;;;;33.77;20.25;100870.66;4952385;28;20421;-75
2023/07/19 01:00:46;;;;;;;1.65;0.60;;;;;;;33.68;19.56;100860.53;4951982;28;20111;-74
2023/07/19 01:03:26;;;;;;;4.13;0.70;;;;;;;33.61;20.16;100864.59;4951828;28;20046;-76
2023/07/19 01:06:00;;;;;;;0.95;0.60;;;;;;;33.55;19.90;100863.13;4954344;28;20075;-74
2023/07/19 01:08:28;;;;;;;2.72;0.60;;;;;;;33.51;19.83;100861.59;4954649;28;20043;-74
2023/07/19 01:10:57;;;;;;;0.95;0.60;;;;;;;33.48;20.40;100862.66;4951519;28;20048;-76
2023/07/19 01:13:25;;;;;;;2.08;0.70;;;;;;;33.47;20.92;100862.75;4953826;28;20119;-76
2023/07/19 01:15:54;;;;;;;1.92;0.80;;;;;;;33.51;21.75;100865.16;4953433;28;20055;-82
2023/07/19 01:18:23;;;;;;;1.75;0.60;;;;;;;33.52;21.76;100858.81;4953820;28;20051;-76
2023/07/19 01:20:52;;;;;;;0.95;0.50;;;;;;;33.43;21.78;100856.72;4953367;28;20059;-76
2023/07/19 01:23:24;;;;;;;1.30;0.60;;;;;;;33.41;22.51;100853.28;4953644;28;20055;-76
2023/07/19 01:25:53;;;;;;;2.40;0.80;;;;;;;33.42;21.96;100852.31;4952379;28;20073;-77
2023/07/19 01:28:22;;;;;;;0.63;0.50;;;;;;;33.42;21.89;100855.00;4953423;28;20051;-76
2023/07/19 01:30:54;;;;;;;1.25;0.52;;;;;;;33.29;20.55;100849.59;4953431;28;20450;-77
2023/07/19 01:33:22;;;;;;;0.60;0.43;;;;;;;33.22;21.16;100852.75;4952810;29;20706;-74
2023/07/19 01:35:51;;;;;;;1.05;0.60;;;;;;;33.11;21.90;100846.25;4954034;28;20110;-76
2023/07/19 01:38:21;;;;;;;4.53;0.65;;;;;;;33.01;21.21;100854.94;4949810;28;20082;-75
2023/07/19 01:40:49;;;;;;;0.75;0.50;;;;;;;32.94;21.17;100852.66;4951111;28;20050;-76
2023/07/19 01:43:18;;;;;;;0.70;0.50;;;;;;;32.92;21.39;100851.88;4949391;28;20502;-77
2023/07/19 01:45:47;;;;;;;1.92;0.80;;;;;;;32.91;21.14;100849.31;4951244;28;20055;-76
2023/07/19 01:48:16;;;;;;;1.45;0.60;;;;;;;32.86;21.16;100851.41;4951415;28;20094;-74
2023/07/19 01:50:48;;;;;;;1.13;0.90;;;;;;;32.77;21.37;100844.81;4950363;28;20047;-75
2023/07/19 01:53:17;;;;;;;3.13;0.73;;;;;;;32.67;21.10;100841.84;4951634;28;20043;-75
2023/07/19 01:55:47;;;;;;;0.60;0.50;;;;;;;32.57;21.69;100845.16;4953459;28;20051;-75
2023/07/19 01:58:15;;;;;;;0.90;0.60;;;;;;;32.53;21.91;100839.16;4950971;28;20054;-76
2023/07/19 02:00:44;;;;;;;1.35;0.70;;;;;;;32.51;22.23;100843.75;4953824;28;20493;-76
2023/07/19 02:03:13;;;;;;;1.20;0.70;;;;;;;32.49;22.05;100837.59;4951557;28;20063;-75
2023/07/19 02:05:42;;;;;;;0.63;0.50;;;;;;;32.44;21.94;100845.91;4950730;28;20508;-74
2023/07/19 02:08:11;;;;;;;0.70;0.50;;;;;;;32.40;21.63;100838.16;4950163;28;20102;-75
2023/07/19 02:10:40;;;;;;;1.48;0.65;;;;;;;32.35;22.50;100835.75;4951593;28;20207;-75
2023/07/19 02:13:10;;;;;;;2.00;0.52;;;;;;;32.21;23.40;100828.56;4951357;28;20426;-76
2023/07/19 02:15:38;;;;;;;1.65;0.52;;;;;;;32.20;22.71;100834.84;4952556;28;20421;-75
2023/07/19 02:18:07;;;;;;;1.05;0.55;;;;;;;32.08;22.66;100840.94;4952394;28;20603;-74
2023/07/19 02:20:36;;;;;;;2.25;0.57;;;;;;;31.98;22.10;100843.31;4952128;28;20094;-74
2023/07/19 02:23:06;;;;;;;2.85;0.50;;;;;;;31.96;22.13;100849.66;4953007;28;20484;-73
2023/07/19 02:25:41;;;;;;;0.90;0.50;;;;;;;31.93;22.39;100846.22;4952748;28;20067;-76
2023/07/19 02:28:22;;;;;;;2.75;0.60;;;;;;;31.88;22.04;100844.75;4951580;28;20047;-74
2023/07/19 02:30:50;;;;;;;1.63;0.70;;;;;;;31.80;22.67;100847.88;4949132;28;20044;-73
2023/07/19 02:33:19;;;;;;;2.58;0.70;;;;;;;31.70;22.40;100844.00;4950161;28;20233;-74
2023/07/19 02:35:53;;;;;;;0.73;0.57;;;;;;;31.54;22.50;100841.34;4954472;28;20472;-73
2023/07/19 02:38:22;;;;;;;1.23;0.70;;;;;;;31.39;22.55;100829.69;4950794;28;20083;-74
2023/07/19 02:40:51;;;;;;;1.38;0.47;;;;;;;31.36;22.49;100840.56;4950876;28;20054;-73
2023/07/19 02:43:21;;;;;;;0.80;0.50;;;;;;;31.28;22.97;100848.13;4948967;28;20055;-73
2023/07/19 02:45:50;;;;;;;1.73;0.50;;;;;;;31.15;23.29;100839.06;4948619;28;20536;-75
2023/07/19 02:48:18;;;;;;;0.60;0.40;;;;;;;31.05;22.85;100841.38;4949113;28;20413;-74
2023/07/19 02:50:49;;;;;;;0.95;0.60;;;;;;;30.95;22.80;100846.38;4951649;28;20047;-75
2023/07/19 02:53:18;;;;;;;1.73;0.70;;;;;;;30.87;23.41;100844.09;4949013;28;20106;-76
2023/07/19 02:55:46;;;;;;;3.15;0.50;;;;;;;30.85;24.50;100855.81;4946736;28;20146;-75
2023/07/19 02:58:16;;;;;;;1.63;0.70;;;;;;;30.73;24.51;100843.09;4947003;28;20055;-73
2023/07/19 03:00:46;;;;;;;1.70;0.50;;;;;;;30.74;24.51;100853.72;4950516;28;20047;-74
2023/07/19 03:03:17;;;;;;;3.92;0.70;;;;;;;30.65;24.63;100863.06;4948884;28;20055;-76
2023/07/19 03:05:46;;;;;;;0.70;0.40;;;;;;;30.57;24.21;100862.59;4948164;28;20051;-76
2023/07/19 03:08:15;;;;;;;2.88;0.55;;;;;;;30.45;24.81;100860.56;4948232;28;20071;-76
2023/07/19 03:10:43;;;;;;;1.15;0.50;;;;;;;30.35;25.45;100867.31;4950454;28;20051;-75
2023/07/19 03:13:12;;;;;;;2.92;0.50;;;;;;;30.30;25.08;100859.53;4949920;28;20711;-74
2023/07/19 03:15:40;;;;;;;1.00;0.60;;;;;;;30.23;26.02;100869.63;4950771;28;20047;-77
2023/07/19 03:18:11;;;;;;;2.72;0.60;;;;;;;30.16;24.54;100870.03;4949733;28;20054;-76
2023/07/19 03:20:39;;;;;;;2.78;0.80;;;;;;;30.00;25.47;100862.78;4949222;28;20103;-73
2023/07/19 03:23:08;;;;;;;1.48;0.65;;;;;;;29.91;25.91;100867.72;4947851;28;20058;-75
2023/07/19 03:25:36;;;;;;;2.28;0.68;;;;;;;29.84;26.47;100868.03;4948202;28;20563;-76
2023/07/19 03:28:05;;;;;;;2.45;0.70;;;;;;;29.80;25.72;100876.25;4951412;28;20047;-77
2023/07/19 03:30:34;;;;;;;1.10;0.70;;;;;;;29.74;25.98;100874.75;4950601;28;20095;-75
2023/07/19 03:33:02;;;;;;;2.08;0.70;;;;;;;29.66;27.23;100882.22;4942841;28;20142;-79
2023/07/19 03:35:32;;;;;;;4.32;0.68;;;;;;;29.58;26.72;100881.75;4949256;28;20201;-76
2023/07/19 03:38:01;;;;;;;1.15;0.60;;;;;;;29.51;26.56;100885.66;4950032;28;20064;-76
2023/07/19 03:40:30;;;;;;;1.10;0.90;;;;;;;29.37;27.28;100879.16;4948271;28;20039;-77
2023/07/19 03:42:58;;;;;;;0.65;0.50;;;;;;;29.26;27.41;100884.13;4952759;28;20059;-76
2023/07/19 03:45:28;;;;;;;1.15;0.65;;;;;;;29.18;27.81;100883.59;4951757;28;20486;-75
2023/07/19 03:47:56;;;;;;;3.17;0.70;;;;;;;29.03;28.55;100877.16;4947958;28;20051;-76
2023/07/19 03:50:26;;;;;;;2.78;0.70;;;;;;;28.98;28.53;100888.03;4949652;28;20517;-75
2023/07/19 03:52:56;;;;;;;1.00;0.50;;;;;;;28.88;28.31;100885.84;4950199;28;20043;-75
2023/07/19 03:55:25;;;;;;;1.52;0.85;;;;;;;28.74;27.86;100889.97;4950881;28;20047;-74
2023/07/19 03:57:53;;;;;;;1.25;0.60;;;;;;;28.61;28.92;100887.00;4950877;28;20093;-73
2023/07/19 04:00:28;;;;;;;3.50;0.60;;;;;;;28.51;28.71;100893.66;4947612;28;20557;-76
2023/07/19 04:02:58;;;;;;;1.58;0.65;;;;;;;28.42;28.83;100889.53;4946389;28;20054;-75
2023/07/19 04:05:26;;;;;;;1.20;0.70;;;;;;;28.35;29.04;100892.53;4942351;28;20040;-75
2023/07/19 04:08:01;;;;;;;1.38;0.60;;;;;;;28.28;28.95;100893.75;4949190;28;20039;-75
2023/07/19 04:10:31;;;;;;;2.53;0.90;;;;;;;28.17;29.00;100896.84;4955044;28;20520;-75
2023/07/19 04:12:59;;;;;;;1.08;0.70;;;;;;;28.03;29.30;100894.75;4945428;28;20084;-74
2023/07/19 04:15:28;;;;;;;1.85;0.70;;;;;;;28.01;29.98;100909.91;4955758;28;20047;-75
2023/07/19 04:17:57;;;;;;;5.82;0.80;;;;;;;27.94;29.81;100908.41;4953844;28;20107;-76
2023/07/19 04:20:26;;;;;;;1.55;0.70;;;;;;;27.79;28.94;100889.47;4954045;28;20058;-74
2023/07/19 04:22:57;;;;;;;2.10;0.70;;;;;;;27.82;29.27;100914.22;4953471;28;20047;-77
2023/07/19 04:25:25;;;;;;;1.27;0.88;;;;;;;27.74;29.83;100912.72;4952635;28;20063;-76
2023/07/19 04:27:54;;;;;;;2.72;1.00;;;;;;;27.69;30.23;100927.97;4952343;28;20505;-77
2023/07/19 04:30:24;;;;;;;1.98;0.90;;;;;;;27.61;30.25;100921.25;4954694;28;20621;-75
2023/07/19 04:32:55;;;;;;;1.48;0.80;;;;;;;27.53;30.01;100924.19;4956423;28;20552;-76
2023/07/19 04:35:23;;;;;;;2.30;0.70;;;;;;;27.44;30.60;100930.75;4955811;28;20047;-75
2023/07/19 04:37:52;;;;;;;1.30;0.68;;;;;;;27.36;30.13;100935.47;4955259;28;20090;-76
2023/07/19 04:40:22;;;;;;;2.58;1.00;;;;;;;27.26;30.01;100926.09;4957801;28;20110;-76
2023/07/19 04:42:51;;;;;;;1.42;0.68;;;;;;;27.16;30.47;100936.16;4952558;28;20055;-76
2023/07/19 04:45:22;;;;;;;2.28;0.90;;;;;;;27.08;30.88;100939.09;4952629;28;20060;-79
2023/07/19 04:47:50;;;;;;;1.98;0.93;;;;;;;27.00;31.02;100935.00;4954197;28;20055;-76
2023/07/19 04:50:19;;;;;;;1.70;0.80;;;;;;;26.93;31.46;100940.50;4953195;28;20051;-77
2023/07/19 04:52:47;;;;;;;3.63;1.02;;;;;;;26.87;32.06;100940.75;4954015;28;20138;-75
2023/07/19 04:55:16;;;;;;;2.83;1.00;;;;;;;26.79;31.91;100933.97;4952858;28;20062;-76
2023/07/19 04:57:46;;;;;;;2.63;1.70;;;;;;;26.72;31.75;100938.63;4953443;28;20055;-74
2023/07/19 05:00:17;;;;;;;5.72;1.00;;;;;;;26.64;33.71;100932.69;4954208;28;20082;-75
2023/07/19 05:02:46;;;;;;;3.97;1.25;;;;;;;26.57;32.46;100941.78;4951531;28;20048;-75
2023/07/19 05:05:14;;;;;;;1.75;0.90;;;;;;;26.51;33.30;100946.38;4953511;28;20047;-77
2023/07/19 05:07:44;;;;;;;2.25;0.95;;;;;;;26.45;33.69;100941.25;4952019;28;20493;-77
2023/07/19 05:10:13;;;;;;;2.35;1.05;;;;;;;26.41;33.16;100939.66;4944685;28;20051;-73
2023/07/19 05:12:42;;;;;;;2.08;1.10;;;;;;;26.34;33.64;100951.34;4952360;28;20051;-76
2023/07/19 05:15:13;;;;;;;3.85;1.02;;;;;;;26.27;33.58;100947.16;4952134;28;20058;-75
2023/07/19 05:17:41;;;;;;;1.92;0.90;;;;;;;26.24;34.51;100947.28;4956003;28;20067;-75
2023/07/19 05:20:11;;;;;;;1.58;1.00;;;;;;;26.11;34.29;100931.78;4955784;28;20046;-75
2023/07/19 05:22:39;;;;;;;3.08;1.17;;;;;;;26.09;34.67;100941.56;4946492;28;20051;-76
2023/07/19 05:25:09;;;;;;;2.05;1.35;;;;;;;26.05;34.37;100942.56;4955381;28;20089;-77
2023/07/19 05:27:37;;;;;;;3.50;1.35;;;;;;;26.01;34.59;100937.41;4953103;28;20143;-76
2023/07/19 05:30:07;;;;;;;2.45;1.40;;;;;;;25.97;34.82;100946.38;4952938;28;20106;-75
2023/07/19 05:32:39;;;;;;;4.65;1.50;;;;;;;25.89;34.90;100943.97;4951338;28;20047;-76
2023/07/19 05:35:07;;;;;;;;;;;;;;;25.78;35.04;100938.97;4952500;28;20087;-75
2023/07/19 05:37:36;;;;;;;5.63;1.80;;;;;;;25.74;35.03;100939.09;4951105;28;20380;-75
2023/07/19 05:40:05;;;;;;;2.78;1.70;;;;;;;25.67;35.04;100943.72;4950517;28;20051;-76
2023/07/19 05:42:34;;;;;;;3.03;1.50;;;;;;;25.61;36.00;100947.44;4954137;28;20138;-76
2023/07/19 05:45:03;;;;;;;3.38;1.92;;;;;;;25.56;36.05;100949.34;4953105;28;20684;-75
2023/07/19 05:47:32;;;;;;;3.78;1.95;;;;;;;25.48;36.35;100946.06;4953076;28;20181;-76
2023/07/19 05:50:03;;;;;;;3.75;2.00;;;;;;;25.38;36.74;100958.72;4952202;28;20058;-76
2023/07/19 05:52:31;;;;;;;3.10;2.00;;;;;;;25.31;36.26;100953.63;4951563;28;20043;-76
2023/07/19 05:55:00;;;;;;;4.13;2.05;;;;;;;25.26;36.06;100953.75;4950242;28;20039;-75
2023/07/19 05:57:30;;;;;;;2.13;1.85;;;;;;;25.19;36.30;100953.06;4950677;28;20055;-77
2023/07/19 06:00:03;;;;;;;4.53;2.00;;;;;;;25.11;36.52;100949.72;4948944;28;20058;-76
2023/07/19 06:02:35;;;;;;;3.17;1.67;;;;;;;25.03;36.93;100955.22;4950399;28;20062;-77
2023/07/19 06:05:06;;;;;;;2.83;1.77;;;;;;;24.95;37.23;100953.72;4947052;28;20576;-76
2023/07/19 06:07:35;;;;;;;2.05;1.42;;;;;;;24.87;37.91;100954.75;4949316;28;20055;-75
2023/07/19 06:10:04;;;;;;;1.55;1.00;;;;;;;24.82;37.98;100953.16;4948128;28;20075;-75
2023/07/19 06:12:33;;;;;;;3.15;1.88;;;;;;;24.76;37.72;100948.91;4951237;28;20051;-75
2023/07/19 06:15:05;;;;;;;2.92;1.00;;;;;;;24.67;37.89;100947.38;4951474;28;20055;-76
2023/07/19 06:17:33;;;;;;;;;;;;;;;24.59;38.60;100951.97;4953084;28;20059;-75
2023/07/19 06:20:02;;;;;;;1.65;1.10;;;;;;;24.46;38.60;100956.69;4953008;28;19926;-76
2023/07/19 06:22:32;;;;;;;2.63;1.17;;;;;;;24.41;38.51;100955.91;4950467;28;20047;-75
2023/07/19 06:25:01;;;;;;;2.83;1.10;;;;;;;24.35;38.93;100952.53;4950606;28;20056;-76
2023/07/19 06:27:32;;;;;;;1.45;0.80;;;;;;;24.31;38.89;100949.13;4951051;28;20054;-75
2023/07/19 06:30:01;;;;;;;3.22;1.05;;;;;;;24.23;39.16;100946.69;4949909;28;20489;-77
2023/07/19 06:32:30;;;;;;;1.38;1.00;;;;;;;24.26;38.92;100948.38;4949973;28;20452;-76
2023/07/19 06:34:58;;;;;;;1.23;0.73;;;;;;;24.20;38.52;100959.09;4951025;28;20573;-76
2023/07/19 06:37:27;;;;;;;4.32;1.20;;;;;;;24.12;39.03;100961.94;4950418;28;20504;-76
2023/07/19 06:40:01;;;;;;;2.88;0.90;;;;;;;24.03;40.39;100963.00;4951097;28;20083;-75
2023/07/19 06:42:30;;;;;;;1.20;0.88;;;;;;;23.94;40.04;100960.56;4951862;28;20110;-76
2023/07/19 06:44:59;;;;;;;2.40;0.93;;;;;;;23.87;40.60;100958.97;4950183;28;20623;-76
2023/07/19 06:47:28;;;;;;;1.77;0.80;;;;;;;23.77;40.74;100949.50;4950051;28;20391;-75
2023/07/19 06:49:58;;;;;;;1.83;0.80;;;;;;;23.71;41.38;100954.88;4950104;28;20047;-76
2023/07/19 06:52:26;;;;;;;1.70;0.75;;;;;;;23.66;41.19;100970.81;4950541;28;20043;-75
2023/07/19 06:54:57;;;;;;;1.27;0.80;;;;;;;23.63;40.82;100966.47;4953797;28;20106;-74
2023/07/19 06:57:25;;;;;;;3.63;1.20;;;;;;;23.62;41.95;100962.09;4950017;28;20047;-75
2023/07/19 06:59:54;;;;;;;1.60;0.80;;;;;;;23.60;41.48;100969.19;4950056;28;20059;-76
2023/07/19 07:02:25;;;;;;;1.33;0.90;;;;;;;23.57;41.03;100957.81;4949581;28;20051;-76
2023/07/19 07:04:54;;;;;;;2.38;1.08;;;;;;;23.50;41.54;100959.75;4951075;28;20059;-76
2023/07/19 07:07:24;;;;;;;2.35;0.90;;;;;;;23.44;42.25;100957.22;4950564;28;20051;-76
2023/07/19 07:09:53;;;;;;;1.60;0.90;;;;;;;23.35;41.77;100957.41;4950432;28;20054;-74
2023/07/19 07:12:29;;;;;;;1.58;0.80;;;;;;;23.28;41.45;100963.72;4950465;28;20132;-75
2023/07/19 07:14:57;;;;;;;1.90;0.98;;;;;;;23.20;42.22;100959.47;4950846;28;20686;-75
2023/07/19 07:17:26;;;;;;;4.28;1.08;;;;;;;23.14;42.10;100975.41;4950081;28;20054;-75
2023/07/19 07:19:55;;;;;;;1.77;0.93;;;;;;;23.13;41.63;100971.00;4949162;28;20058;-75
2023/07/19 07:22:23;;;;;;;2.30;1.00;;;;;;;23.13;42.38;100971.00;4951391;28;20134;-74
2023/07/19 07:24:52;;;;;;;1.33;0.70;;;;;;;23.12;42.08;100964.00;4952864;28;20053;-75
2023/07/19 07:27:20;;;;;;;1.80;0.88;;;;;;;23.10;42.10;100971.06;4950670;28;20055;-74
2023/07/19 07:29:51;;;;;;;2.47;1.00;;;;;;;23.05;42.30;100970.28;4949997;28;20050;-74
2023/07/19 07:32:19;;;;;;;1.52;0.85;;;;;;;23.01;42.09;100979.16;4950378;28;20046;-74
2023/07/19 07:34:48;;;;;;;1.60;0.80;;;;;;;22.96;42.75;100967.78;4947803;28;20762;-74
2023/07/19 07:37:16;;;;;;;1.80;0.88;;;;;;;22.88;43.13;100972.31;4948532;28;20508;-74
2023/07/19 07:39:45;;;;;;;1.77;0.80;;;;;;;22.79;43.23;100968.09;4946247;28;20043;-75
2023/07/19 07:42:13;;;;;;;1.17;0.85;;;;;;;22.72;42.48;100972.63;4949394;28;20535;-74
2023/07/19 07:44:42;;;;;;;1.15;0.70;;;;;;;22.68;42.83;100983.25;4949940;28;20059;-75
2023/07/19 07:47:14;;;;;;;1.77;0.80;;;;;;;22.59;43.39;100982.50;4948237;28;20506;-75
2023/07/19 07:49:43;;;;;;;1.05;0.70;;;;;;;22.55;43.55;100985.22;4947315;28;20082;-74
2023/07/19 07:52:15;;;;;;;3.08;0.90;;;;;;;22.50;44.15;100985.28;4948223;28;20051;-74
2023/07/19 07:54:44;;;;;;;1.25;0.70;;;;;;;22.45;44.89;100987.13;4948188;28;20063;-75
2023/07/19 07:57:12;;;;;;;2.05;0.82;;;;;;;22.42;45.54;100979.25;4949531;28;20039;-75
2023/07/19 07:59:41;;;;;;;1.00;0.75;;;;;;;22.31;45.32;100984.72;4947782;28;20070;-73
2023/07/19 08:02:11;;;;;;;3.17;0.80;;;;;;;22.25;45.94;100982.16;4949720;28;20053;-75
2023/07/19 08:04:40;;;;;;;2.35;0.65;;;;;;;22.23;44.96;100983.94;4951527;28;20051;-74
2023/07/19 08:07:08;;;;;;;3.03;1.10;;;;;;;22.17;45.66;100987.53;4951401;28;20055;-75
2023/07/19 08:09:37;;;;;;;1.55;0.90;;;;;;;22.09;44.89;100992.03;4950721;28;20047;-75
2023/07/19 08:12:07;;;;;;;1.27;0.80;;;;;;;22.08;44.91;100994.66;4954149;28;20047;-75
2023/07/19 08:14:35;;;;;;;3.03;0.80;;;;;;;22.05;45.11;100995.59;4950954;28;20111;-75
2023/07/19 08:17:04;;;;;;;2.30;0.80;;;;;;;22.04;45.24;100993.88;4950224;28;20051;-74
2023/07/19 08:19:34;;;;;;;1.50;0.80;;;;;;;22.04;45.12;100998.28;4951073;28;20070;-75
2023/07/19 08:22:07;;;;;;;2.97;1.00;;;;;;;22.00;44.99;101001.84;4948490;28;20173;-75
2023/07/19 08:24:36;;;;;;;2.03;0.88;;;;;;;21.95;48.73;101000.13;4950398;28;20177;-74
2023/07/19 08:27:04;;;;;;;4.57;1.00;;;;;;;21.86;46.92;100994.13;4948404;28;20075;-75
2023/07/19 08:29:33;;;;;;;1.88;0.90;;;;;;;21.81;45.79;101002.06;4950168;28;20102;-74
2023/07/19 08:32:03;;;;;;;1.95;0.80;;;;;;;21.80;46.50;101005.59;4942258;28;20043;-75
2023/07/19 08:34:33;;;;;;;1.85;0.70;;;;;;;21.79;46.87;101001.22;4946389;28;20083;-75
2023/07/19 08:37:08;;;;;;;3.58;0.70;;;;;;;21.80;48.05;101004.72;4949885;28;20040;-76
2023/07/19 08:39:37;;;;;;;3.15;0.80;;;;;;;21.83;47.90;101017.84;4950670;28;20059;-77
2023/07/19 08:42:07;;;;;;;2.45;0.90;;;;;;;21.85;46.89;101016.97;4954698;28;20115;-74
2023/07/19 08:44:36;;;;;;;0.88;0.50;;;;;;;21.83;46.11;101016.09;4946347;28;20051;-74
2023/07/19 08:47:06;;;;;;;1.95;0.82;;;;;;;21.82;46.48;101014.34;4949418;28;20059;-74
2023/07/19 08:49:38;;;;;;;1.45;0.57;;;;;;;21.81;46.34;101015.25;4949810;28;20055;-75
2023/07/19 08:52:09;;;;;;;1.85;0.88;;;;;;;21.78;46.51;101017.91;4949672;28;20058;-76
2023/07/19 08:54:38;;;;;;;2.45;0.82;;;;;;;21.73;46.17;101010.06;4949978;28;20059;-75
2023/07/19 08:57:07;;;;;;;2.88;0.82;;;;;;;21.70;46.51;101011.88;4952291;28;20043;-76
2023/07/19 08:59:36;;;;;;;3.33;0.60;;;;;;;21.65;46.72;101016.34;4951980;28;20054;-76
2023/07/19 09:02:04;;;;;;;0.75;0.65;;;;;;;21.59;46.82;101013.75;4953767;28;20055;-75
2023/07/19 09:04:40;;;;;;;0.93;0.70;;;;;;;21.50;46.90;101012.09;4946203;28;20055;-76
2023/07/19 09:07:08;;;;;;;2.38;0.50;;;;;;;21.43;47.31;101013.94;4954754;28;20090;-75
2023/07/19 09:09:38;;;;;;;1.35;0.60;;;;;;;21.39;47.17;101014.81;4953097;28;20058;-76
2023/07/19 09:12:10;;;;;;;0.60;0.50;;;;;;;21.34;47.01;101016.63;4952056;28;20114;-74
2023/07/19 09:14:38;;;;;;;3.40;0.82;;;;;;;21.29;47.27;101013.19;4952420;28;20446;-75
2023/07/19 09:17:08;;;;;;;1.17;0.55;;;;;;;21.21;47.80;101009.75;4951956;28;20051;-75
2023/07/19 09:19:44;;;;;;;2.22;0.77;;;;;;;21.16;47.90;101016.81;4953653;28;20142;-76
2023/07/19 09:22:16;;;;;;;0.80;0.50;;;;;;;21.15;47.81;101015.09;4952088;28;20086;-75
2023/07/19 09:24:57;;;;;;;1.65;0.70;;;;;;;21.06;48.42;101011.66;4952493;28;20123;-74
2023/07/19 09:27:26;;;;;;;2.08;0.65;;;;;;;21.00;48.79;101013.47;4932926;29;20083;-75
2023/07/19 09:29:58;;;;;;;2.58;0.70;;;;;;;20.96;48.67;101020.53;4932156;29;20059;-75
2023/07/19 09:32:26;;;;;;;1.48;0.70;;;;;;;20.96;49.25;101024.91;4932988;29;20683;-75
2023/07/19 09:34:57;;;;;;;0.90;0.55;;;;;;;20.94;48.58;101017.03;4933930;29;20074;-75
2023/07/19 09:37:26;;;;;;;4.00;1.13;;;;;;;20.91;49.87;101027.56;4923510;29;20052;-75
2023/07/19 09:39:55;;;;;;;1.27;0.65;;;;;;;20.88;48.76;101017.09;4931301;29;20055;-74
2023/07/19 09:42:25;;;;;;;1.30;0.80;;;;;;;20.86;50.44;101021.50;4933862;29;20079;-75
2023/07/19 09:44:55;;;;;;;1.05;0.63;;;;;;;20.81;48.90;101020.66;4932789;29;20116;-76
2023/07/19 09:47:26;;;;;;;2.47;0.75;;;;;;;20.76;51.89;101022.47;4932497;29;20055;-75
2023/07/19 09:49:56;;;;;;;0.63;0.60;;;;;;;20.72;51.54;101016.34;4931203;29;20461;-75
2023/07/19 09:52:26;;;;;;;2.08;0.73;;;;;;;20.70;50.37;101018.97;4933821;29;20059;-74
2023/07/19 09:54:56;;;;;;;1.83;0.60;;;;;;;20.66;49.27;101022.53;4933003;29;20542;-75
2023/07/19 09:57:26;;;;;;;1.95;0.52;;;;;;;20.64;50.39;101019.06;4933432;29;20051;-75
2023/07/19 09:59:55;;;;;;;1.02;0.60;;;;;;;20.60;49.94;101022.56;4932594;29;20060;-76
2023/07/19 10:02:27;;;;;;;0.63;0.43;;;;;;;20.63;49.94;101032.19;4933202;29;20074;-76
2023/07/19 10:04:57;;;;;;;2.55;0.80;;;;;;;20.61;50.02;101033.97;4932714;29;20066;-76
2023/07/19 10:07:28;;;;;;;0.75;0.55;;;;;;;20.59;50.31;101031.38;4933039;29;20048;-75
2023/07/19 10:10:03;;;;;;;0.95;0.47;;;;;;;20.57;50.67;101037.50;4931433;28;20059;-75
2023/07/19 10:12:32;;;;;;;1.35;0.85;;;;;;;20.54;50.24;101035.72;4936173;29;20107;-75
2023/07/19 10:15:03;;;;;;;2.42;0.70;;;;;;;20.50;50.39;101036.63;4932879;29;20075;-76
2023/07/19 10:17:41;;;;;;;1.63;0.73;;;;;;;20.42;50.76;101041.06;4929149;29;20055;-75
2023/07/19 10:20:14;;;;;;;1.30;0.60;;;;;;;20.35;51.20;101044.63;4931349;29;20497;-76
2023/07/19 10:22:50;;;;;;;1.13;0.50;;;;;;;20.30;51.81;101045.53;4929974;29;20070;-76
2023/07/19 10:25:24;;;;;;;3.67;1.00;;;;;;;20.27;52.48;101045.56;4936373;28;20143;-76
2023/07/19 10:28:03;;;;;;;2.88;0.80;;;;;;;20.21;53.14;101039.47;4950578;28;20048;-76
2023/07/19 10:30:56;;;;;;;1.92;0.52;;;;;;;20.17;53.60;101042.97;4951207;28;20253;-77
2023/07/19 10:33:27;;;;;;;1.67;0.60;;;;;;;20.14;54.93;101043.88;4931480;28;20058;-75
2023/07/19 10:35:58;;;;;;;3.22;0.63;;;;;;;20.05;55.15;101049.19;4951111;28;20059;-75
2023/07/19 10:38:30;;;;;;;1.05;0.98;;;;;;;20.00;54.95;101049.19;4950753;28;20054;-75
2023/07/19 10:41:00;;;;;;;2.47;0.80;;;;;;;19.95;55.81;101043.09;4948323;28;20062;-75
2023/07/19 10:43:30;;;;;;;1.17;0.70;;;;;;;19.88;56.21;101052.75;4951771;28;20054;-75
2023/07/19 10:45:59;;;;;;;1.00;0.70;;;;;;;19.83;56.29;101046.63;4953451;28;20051;-75
2023/07/19 10:48:32;;;;;;;2.28;0.80;;;;;;;19.79;55.73;101049.28;4953294;28;20043;-75
2023/07/19 10:51:04;;;;;;;3.47;1.10;;;;;;;19.69;55.49;101056.31;4947040;28;20044;-73
2023/07/19 10:53:42;;;;;;;2.22;0.90;;;;;;;19.58;55.11;101058.06;4946768;28;20563;-75
2023/07/19 10:56:14;;;;;;;1.90;0.70;;;;;;;19.56;55.00;101051.94;4946447;28;20055;-75
2023/07/19 10:58:43;;;;;;;1.65;0.75;;;;;;;19.57;55.05;101057.19;4951577;28;20071;-75
2023/07/19 11:01:12;;;;;;;3.25;0.80;;;;;;;19.56;54.93;101062.44;4950732;28;20078;-76
2023/07/19 11:03:43;;;;;;;1.25;0.73;;;;;;;19.55;55.07;101060.69;4951191;28;20486;-75
2023/07/19 11:06:14;;;;;;;1.85;0.80;;;;;;;19.54;54.46;101064.19;4950677;28;20509;-76
2023/07/19 11:08:44;;;;;;;2.78;0.75;;;;;;;19.51;54.69;101067.69;4949917;28;20048;-76
2023/07/19 11:11:15;;;;;;;1.08;0.60;;;;;;;19.46;54.37;101064.22;4951165;28;20054;-73
2023/07/19 11:13:46;;;;;;;3.58;0.73;;;;;;;19.37;54.00;101048.50;4950656;28;20707;-75
2023/07/19 11:16:14;;;;;;;2.63;0.90;;;;;;;19.43;54.69;101072.97;4952495;28;20043;-75
2023/07/19 11:18:43;;;;;;;3.45;0.65;;;;;;;19.43;54.17;101074.72;4949913;28;20055;-76
2023/07/19 11:21:14;;;;;;;1.50;1.00;;;;;;;19.39;53.98;101071.22;4945054;28;20493;-75
2023/07/19 11:23:44;;;;;;;1.95;0.70;;;;;;;19.36;54.32;101071.25;4949741;28;20059;-75
2023/07/19 11:26:16;;;;;;;0.93;0.80;;;;;;;19.33;54.45;101073.84;4952165;28;20047;-75
2023/07/19 11:28:46;;;;;;;0.88;0.60;;;;;;;19.29;54.20;101076.47;4949958;28;20051;-76
2023/07/19 11:31:33;;;;;;;1.48;0.60;;;;;;;19.22;54.50;101080.88;4948091;28;20307;-76
2023/07/19 11:34:05;;;;;;;0.82;0.57;;;;;;;19.10;54.29;101059.91;4949598;28;20402;-74
2023/07/19 11:36:36;;;;;;;3.13;0.70;;;;;;;19.12;55.18;101073.88;4952315;28;20071;-73
2023/07/19 11:39:05;;;;;;;1.05;0.60;;;;;;;19.07;55.15;101080.88;4951253;28;20084;-76